sensor_id;sensor_type;location;lat;lon;timestamp;P1;durP1;ratioP1;P2;durP2;ratioP2
5491;SDS011;2768;53.540;10.224;2023-11-22T00:05:40;2.63;;;2.17;;
5491;SDS011;2768;53.540;10.224;2023-11-22T00:11:33;2.60;;;2.20;;
5491;SDS011;2768;53.540;10.224;2023-11-22T00:17:27;3.13;;;2.50;;
5491;SDS011;2768;53.540;10.224;2023-11-22T00:23:21;2.20;;;2.10;;
5491;SDS011;2768;53.540;10.224;2023-11-22T00:29:19;3.37;;;2.67;;
5491;SDS011;2768;53.540;10.224;2023-11-22T00:35:13;3.37;;;2.90;;
5491;SDS011;2768;53.540;10.224;2023-11-22T00:41:08;2.20;;;2.10;;
5491;SDS011;2768;53.540;10.224;2023-11-22T00:47:03;3.00;;;2.50;;
5491;SDS011;2768;53.540;10.224;2023-11-22T00:52:57;3.20;;;2.93;;
5491;SDS011;2768;53.540;10.224;2023-11-22T00:58:52;3.17;;;2.90;;
5491;SDS011;2768;53.540;10.224;2023-11-22T01:04:46;2.90;;;2.40;;
5491;SDS011;2768;53.540;10.224;2023-11-22T01:10:40;4.10;;;2.73;;
5491;SDS011;2768;53.540;10.224;2023-11-22T01:16:35;2.60;;;2.40;;
5491;SDS011;2768;53.540;10.224;2023-11-22T01:22:29;3.00;;;2.77;;
5491;SDS011;2768;53.540;10.224;2023-11-22T01:28:23;2.50;;;2.23;;
5491;SDS011;2768;53.540;10.224;2023-11-22T01:34:18;3.00;;;2.80;;
5491;SDS011;2768;53.540;10.224;2023-11-22T01:40:11;2.77;;;2.50;;
5491;SDS011;2768;53.540;10.224;2023-11-22T01:46:06;3.40;;;2.63;;
5491;SDS011;2768;53.540;10.224;2023-11-22T01:52:01;6.53;;;2.77;;
5491;SDS011;2768;53.540;10.224;2023-11-22T01:57:57;2.73;;;2.53;;
5491;SDS011;2768;53.540;10.224;2023-11-22T02:03:50;3.67;;;3.03;;
5491;SDS011;2768;53.540;10.224;2023-11-22T02:09:46;2.80;;;2.60;;
5491;SDS011;2768;53.540;10.224;2023-11-22T02:15:41;4.90;;;2.70;;
5491;SDS011;2768;53.540;10.224;2023-11-22T02:21:34;3.20;;;2.70;;
5491;SDS011;2768;53.540;10.224;2023-11-22T02:27:29;2.80;;;2.60;;
5491;SDS011;2768;53.540;10.224;2023-11-22T02:33:25;3.10;;;2.80;;
5491;SDS011;2768;53.540;10.224;2023-11-22T02:39:19;2.67;;;2.47;;
5491;SDS011;2768;53.540;10.224;2023-11-22T02:45:15;3.00;;;2.70;;
5491;SDS011;2768;53.540;10.224;2023-11-22T02:51:10;3.40;;;2.37;;
5491;SDS011;2768;53.540;10.224;2023-11-22T02:57:03;3.57;;;3.03;;
5491;SDS011;2768;53.540;10.224;2023-11-22T03:02:58;4.30;;;3.07;;
5491;SDS011;2768;53.540;10.224;2023-11-22T03:08:51;3.70;;;2.73;;
5491;SDS011;2768;53.540;10.224;2023-11-22T03:14:44;3.37;;;3.00;;
5491;SDS011;2768;53.540;10.224;2023-11-22T03:20:39;3.60;;;2.97;;
5491;SDS011;2768;53.540;10.224;2023-11-22T03:26:34;3.03;;;2.77;;
5491;SDS011;2768;53.540;10.224;2023-11-22T03:32:27;2.80;;;2.60;;
5491;SDS011;2768;53.540;10.224;2023-11-22T03:38:22;5.00;;;4.00;;
5491;SDS011;2768;53.540;10.224;2023-11-22T03:44:16;4.30;;;3.53;;
5491;SDS011;2768;53.540;10.224;2023-11-22T03:50:09;3.87;;;2.90;;
5491;SDS011;2768;53.540;10.224;2023-11-22T03:56:04;3.50;;;2.80;;
5491;SDS011;2768;53.540;10.224;2023-11-22T04:01:58;3.43;;;2.83;;
5491;SDS011;2768;53.540;10.224;2023-11-22T04:07:51;3.63;;;3.30;;
5491;SDS011;2768;53.540;10.224;2023-11-22T04:13:47;3.90;;;3.50;;
5491;SDS011;2768;53.540;10.224;2023-11-22T04:19:41;3.20;;;2.90;;
5491;SDS011;2768;53.540;10.224;2023-11-22T04:25:34;5.20;;;2.90;;
5491;SDS011;2768;53.540;10.224;2023-11-22T04:31:29;3.27;;;2.97;;
5491;SDS011;2768;53.540;10.224;2023-11-22T04:37:23;3.47;;;3.10;;
5491;SDS011;2768;53.540;10.224;2023-11-22T04:43:18;4.43;;;3.50;;
5491;SDS011;2768;53.540;10.224;2023-11-22T04:49:12;3.33;;;3.03;;
5491;SDS011;2768;53.540;10.224;2023-11-22T04:55:06;8.80;;;3.10;;
5491;SDS011;2768;53.540;10.224;2023-11-22T05:01:00;2.93;;;2.73;;
5491;SDS011;2768;53.540;10.224;2023-11-22T05:06:56;4.03;;;3.30;;
5491;SDS011;2768;53.540;10.224;2023-11-22T05:12:50;6.20;;;4.30;;
5491;SDS011;2768;53.540;10.224;2023-11-22T05:18:43;4.37;;;3.97;;
5491;SDS011;2768;53.540;10.224;2023-11-22T05:24:38;3.70;;;3.40;;
5491;SDS011;2768;53.540;10.224;2023-11-22T05:30:32;3.23;;;2.93;;
5491;SDS011;2768;53.540;10.224;2023-11-22T05:36:26;3.77;;;3.47;;
5491;SDS011;2768;53.540;10.224;2023-11-22T05:42:20;4.20;;;3.60;;
5491;SDS011;2768;53.540;10.224;2023-11-22T05:48:13;5.77;;;3.10;;
5491;SDS011;2768;53.540;10.224;2023-11-22T05:54:07;4.00;;;3.60;;
5491;SDS011;2768;53.540;10.224;2023-11-22T06:00:05;3.53;;;3.23;;
5491;SDS011;2768;53.540;10.224;2023-11-22T06:05:59;4.40;;;3.50;;
5491;SDS011;2768;53.540;10.224;2023-11-22T06:12:14;3.10;;;2.80;;
5491;SDS011;2768;53.540;10.224;2023-11-22T06:18:08;4.80;;;3.67;;
5491;SDS011;2768;53.540;10.224;2023-11-22T06:24:02;5.30;;;3.53;;
5491;SDS011;2768;53.540;10.224;2023-11-22T06:29:59;3.10;;;2.80;;
5491;SDS011;2768;53.540;10.224;2023-11-22T06:35:54;3.70;;;3.10;;
5491;SDS011;2768;53.540;10.224;2023-11-22T06:42:06;2.57;;;2.37;;
5491;SDS011;2768;53.540;10.224;2023-11-22T06:48:00;3.70;;;3.40;;
5491;SDS011;2768;53.540;10.224;2023-11-22T06:53:56;4.93;;;3.87;;
5491;SDS011;2768;53.540;10.224;2023-11-22T06:59:51;3.73;;;3.40;;
5491;SDS011;2768;53.540;10.224;2023-11-22T07:05:44;3.60;;;3.30;;
5491;SDS011;2768;53.540;10.224;2023-11-22T07:11:39;5.90;;;3.67;;
5491;SDS011;2768;53.540;10.224;2023-11-22T07:17:33;3.43;;;3.10;;
5491;SDS011;2768;53.540;10.224;2023-11-22T07:23:26;3.20;;;2.93;;
5491;SDS011;2768;53.540;10.224;2023-11-22T07:29:22;3.73;;;3.43;;
5491;SDS011;2768;53.540;10.224;2023-11-22T07:35:18;3.83;;;3.40;;
5491;SDS011;2768;53.540;10.224;2023-11-22T07:41:12;3.83;;;3.50;;
5491;SDS011;2768;53.540;10.224;2023-11-22T07:47:07;5.57;;;3.47;;
5491;SDS011;2768;53.540;10.224;2023-11-22T07:53:02;7.17;;;4.40;;
5491;SDS011;2768;53.540;10.224;2023-11-22T07:58:56;6.93;;;4.63;;
5491;SDS011;2768;53.540;10.224;2023-11-22T08:04:51;11.20;;;6.80;;
5491;SDS011;2768;53.540;10.224;2023-11-22T08:10:44;6.40;;;4.30;;
5491;SDS011;2768;53.540;10.224;2023-11-22T08:16:40;8.33;;;4.50;;
5491;SDS011;2768;53.540;10.224;2023-11-22T08:22:36;5.33;;;4.60;;
5491;SDS011;2768;53.540;10.224;2023-11-22T08:28:30;11.83;;;8.10;;
5491;SDS011;2768;53.540;10.224;2023-11-22T08:34:24;21.30;;;14.00;;
5491;SDS011;2768;53.540;10.224;2023-11-22T08:40:19;10.13;;;7.67;;
5491;SDS011;2768;53.540;10.224;2023-11-22T08:46:12;6.93;;;5.43;;
5491;SDS011;2768;53.540;10.224;2023-11-22T08:52:06;4.97;;;4.40;;
5491;SDS011;2768;53.540;10.224;2023-11-22T08:58:01;7.50;;;4.83;;
5491;SDS011;2768;53.540;10.224;2023-11-22T09:03:55;6.50;;;5.13;;
5491;SDS011;2768;53.540;10.224;2023-11-22T09:09:49;9.17;;;5.83;;
5491;SDS011;2768;53.540;10.224;2023-11-22T09:15:44;4.77;;;4.30;;
5491;SDS011;2768;53.540;10.224;2023-11-22T09:21:38;7.90;;;5.83;;
5491;SDS011;2768;53.540;10.224;2023-11-22T09:27:31;9.50;;;5.47;;
5491;SDS011;2768;53.540;10.224;2023-11-22T09:33:26;5.20;;;4.53;;
5491;SDS011;2768;53.540;10.224;2023-11-22T09:39:20;6.23;;;5.47;;
5491;SDS011;2768;53.540;10.224;2023-11-22T09:45:14;5.47;;;4.97;;
5491;SDS011;2768;53.540;10.224;2023-11-22T09:51:13;8.27;;;5.23;;
5491;SDS011;2768;53.540;10.224;2023-11-22T09:57:15;5.00;;;4.50;;
5491;SDS011;2768;53.540;10.224;2023-11-22T10:03:10;5.40;;;4.90;;
5491;SDS011;2768;53.540;10.224;2023-11-22T10:09:08;5.50;;;5.00;;
5491;SDS011;2768;53.540;10.224;2023-11-22T10:15:10;7.63;;;5.33;;
5491;SDS011;2768;53.540;10.224;2023-11-22T10:21:18;6.67;;;5.10;;
5491;SDS011;2768;53.540;10.224;2023-11-22T10:27:14;8.40;;;5.27;;
5491;SDS011;2768;53.540;10.224;2023-11-22T10:33:12;7.30;;;5.53;;
5491;SDS011;2768;53.540;10.224;2023-11-22T10:39:08;5.50;;;5.00;;
5491;SDS011;2768;53.540;10.224;2023-11-22T10:45:09;7.00;;;5.40;;
5491;SDS011;2768;53.540;10.224;2023-11-22T10:51:03;6.77;;;5.00;;
5491;SDS011;2768;53.540;10.224;2023-11-22T10:56:58;6.57;;;5.13;;
5491;SDS011;2768;53.540;10.224;2023-11-22T11:02:57;6.77;;;5.23;;
5491;SDS011;2768;53.540;10.224;2023-11-22T11:08:53;5.10;;;4.13;;
5491;SDS011;2768;53.540;10.224;2023-11-22T11:14:48;4.70;;;3.97;;
5491;SDS011;2768;53.540;10.224;2023-11-22T11:20:46;4.07;;;3.67;;
5491;SDS011;2768;53.540;10.224;2023-11-22T11:26:42;5.03;;;4.30;;
5491;SDS011;2768;53.540;10.224;2023-11-22T11:32:44;4.13;;;3.43;;
5491;SDS011;2768;53.540;10.224;2023-11-22T11:38:40;4.47;;;4.00;;
5491;SDS011;2768;53.540;10.224;2023-11-22T11:44:33;4.70;;;3.83;;
5491;SDS011;2768;53.540;10.224;2023-11-22T11:50:26;4.50;;;4.10;;
5491;SDS011;2768;53.540;10.224;2023-11-22T11:56:21;4.33;;;3.60;;
5491;SDS011;2768;53.540;10.224;2023-11-22T12:02:18;4.57;;;4.07;;
5491;SDS011;2768;53.540;10.224;2023-11-22T12:08:12;5.30;;;3.30;;
5491;SDS011;2768;53.540;10.224;2023-11-22T12:14:08;2.97;;;2.77;;
5491;SDS011;2768;53.540;10.224;2023-11-22T12:20:10;6.73;;;2.93;;
5491;SDS011;2768;53.540;10.224;2023-11-22T12:26:09;3.30;;;2.73;;
5491;SDS011;2768;53.540;10.224;2023-11-22T12:32:06;2.80;;;2.60;;
5491;SDS011;2768;53.540;10.224;2023-11-22T12:37:59;2.57;;;2.37;;
5491;SDS011;2768;53.540;10.224;2023-11-22T12:44:03;2.47;;;2.27;;
5491;SDS011;2768;53.540;10.224;2023-11-22T12:49:58;2.20;;;1.93;;
5491;SDS011;2768;53.540;10.224;2023-11-22T12:55:52;2.10;;;1.93;;
5491;SDS011;2768;53.540;10.224;2023-11-22T13:01:47;1.83;;;1.73;;
5491;SDS011;2768;53.540;10.224;2023-11-22T13:07:42;2.10;;;1.90;;
5491;SDS011;2768;53.540;10.224;2023-11-22T13:13:36;1.73;;;1.60;;
5491;SDS011;2768;53.540;10.224;2023-11-22T13:19:30;2.50;;;1.90;;
5491;SDS011;2768;53.540;10.224;2023-11-22T13:25:25;2.20;;;1.80;;
5491;SDS011;2768;53.540;10.224;2023-11-22T13:31:18;1.73;;;1.60;;
5491;SDS011;2768;53.540;10.224;2023-11-22T13:37:13;2.30;;;1.63;;
5491;SDS011;2768;53.540;10.224;2023-11-22T13:43:09;1.73;;;1.63;;
5491;SDS011;2768;53.540;10.224;2023-11-22T13:49:04;4.03;;;1.63;;
5491;SDS011;2768;53.540;10.224;2023-11-22T13:54:58;2.10;;;1.90;;
5491;SDS011;2768;53.540;10.224;2023-11-22T14:00:54;1.70;;;1.60;;
5491;SDS011;2768;53.540;10.224;2023-11-22T14:06:47;1.07;;;1.07;;
5491;SDS011;2768;53.540;10.224;2023-11-22T14:12:41;1.10;;;1.10;;
5491;SDS011;2768;53.540;10.224;2023-11-22T14:18:36;1.43;;;1.33;;
5491;SDS011;2768;53.540;10.224;2023-11-22T14:24:30;1.30;;;1.20;;
5491;SDS011;2768;53.540;10.224;2023-11-22T14:30:28;2.90;;;1.50;;
5491;SDS011;2768;53.540;10.224;2023-11-22T14:36:28;1.63;;;1.53;;
5491;SDS011;2768;53.540;10.224;2023-11-22T14:42:21;1.50;;;1.40;;
5491;SDS011;2768;53.540;10.224;2023-11-22T14:48:16;1.63;;;1.53;;
5491;SDS011;2768;53.540;10.224;2023-11-22T14:54:11;2.87;;;1.97;;
5491;SDS011;2768;53.540;10.224;2023-11-22T15:00:06;1.87;;;1.60;;
5491;SDS011;2768;53.540;10.224;2023-11-22T15:06:06;1.77;;;1.67;;
5491;SDS011;2768;53.540;10.224;2023-11-22T15:12:01;2.20;;;2.00;;
5491;SDS011;2768;53.540;10.224;2023-11-22T15:17:55;2.10;;;2.00;;
5491;SDS011;2768;53.540;10.224;2023-11-22T15:23:49;1.73;;;1.63;;
5491;SDS011;2768;53.540;10.224;2023-11-22T15:29:44;1.83;;;1.73;;
5491;SDS011;2768;53.540;10.224;2023-11-22T15:35:37;2.40;;;2.20;;
5491;SDS011;2768;53.540;10.224;2023-11-22T15:41:31;1.77;;;1.67;;
5491;SDS011;2768;53.540;10.224;2023-11-22T15:47:26;2.43;;;2.23;;
5491;SDS011;2768;53.540;10.224;2023-11-22T15:53:20;3.50;;;2.60;;
5491;SDS011;2768;53.540;10.224;2023-11-22T15:59:13;2.70;;;2.50;;
5491;SDS011;2768;53.540;10.224;2023-11-22T16:05:08;2.73;;;2.53;;
5491;SDS011;2768;53.540;10.224;2023-11-22T16:11:04;3.23;;;2.93;;
5491;SDS011;2768;53.540;10.224;2023-11-22T16:17:03;3.27;;;2.70;;
5491;SDS011;2768;53.540;10.224;2023-11-22T16:22:58;3.20;;;2.80;;
5491;SDS011;2768;53.540;10.224;2023-11-22T16:28:51;6.60;;;3.13;;
5491;SDS011;2768;53.540;10.224;2023-11-22T16:34:45;3.27;;;2.80;;
5491;SDS011;2768;53.540;10.224;2023-11-22T16:40:39;2.80;;;2.60;;
5491;SDS011;2768;53.540;10.224;2023-11-22T16:46:33;3.40;;;3.10;;
5491;SDS011;2768;53.540;10.224;2023-11-22T16:52:28;2.73;;;2.53;;
5491;SDS011;2768;53.540;10.224;2023-11-22T16:58:22;4.30;;;2.90;;
5491;SDS011;2768;53.540;10.224;2023-11-22T17:04:15;3.93;;;3.63;;
5491;SDS011;2768;53.540;10.224;2023-11-22T17:10:09;2.87;;;2.67;;
5491;SDS011;2768;53.540;10.224;2023-11-22T17:16:05;4.03;;;3.07;;
5491;SDS011;2768;53.540;10.224;2023-11-22T17:21:59;4.13;;;3.73;;
5491;SDS011;2768;53.540;10.224;2023-11-22T17:27:53;4.10;;;3.50;;
5491;SDS011;2768;53.540;10.224;2023-11-22T17:33:48;3.83;;;3.50;;
5491;SDS011;2768;53.540;10.224;2023-11-22T17:39:41;3.37;;;3.07;;
5491;SDS011;2768;53.540;10.224;2023-11-22T17:45:34;4.47;;;3.17;;
5491;SDS011;2768;53.540;10.224;2023-11-22T17:51:32;2.97;;;2.77;;
5491;SDS011;2768;53.540;10.224;2023-11-22T17:57:25;5.27;;;4.40;;
5491;SDS011;2768;53.540;10.224;2023-11-22T18:03:19;7.80;;;5.20;;
5491;SDS011;2768;53.540;10.224;2023-11-22T18:09:14;7.07;;;4.77;;
5491;SDS011;2768;53.540;10.224;2023-11-22T18:15:08;4.90;;;3.97;;
5491;SDS011;2768;53.540;10.224;2023-11-22T18:21:05;4.70;;;3.57;;
5491;SDS011;2768;53.540;10.224;2023-11-22T18:26:59;4.83;;;4.27;;
5491;SDS011;2768;53.540;10.224;2023-11-22T18:32:53;4.27;;;3.73;;
5491;SDS011;2768;53.540;10.224;2023-11-22T18:38:47;6.70;;;3.87;;
5491;SDS011;2768;53.540;10.224;2023-11-22T18:44:42;4.70;;;3.40;;
5491;SDS011;2768;53.540;10.224;2023-11-22T18:50:38;4.33;;;3.93;;
5491;SDS011;2768;53.540;10.224;2023-11-22T18:56:31;7.10;;;3.70;;
5491;SDS011;2768;53.540;10.224;2023-11-22T19:02:26;5.70;;;4.13;;
5491;SDS011;2768;53.540;10.224;2023-11-22T19:08:20;3.97;;;3.57;;
5491;SDS011;2768;53.540;10.224;2023-11-22T19:14:13;3.97;;;3.50;;
5491;SDS011;2768;53.540;10.224;2023-11-22T19:20:09;4.87;;;3.67;;
5491;SDS011;2768;53.540;10.224;2023-11-22T19:26:03;5.37;;;3.90;;
5491;SDS011;2768;53.540;10.224;2023-11-22T19:31:57;3.90;;;3.60;;
5491;SDS011;2768;53.540;10.224;2023-11-22T19:37:53;3.63;;;3.33;;
5491;SDS011;2768;53.540;10.224;2023-11-22T19:43:46;4.47;;;3.90;;
5491;SDS011;2768;53.540;10.224;2023-11-22T19:49:39;3.87;;;3.57;;
5491;SDS011;2768;53.540;10.224;2023-11-22T19:55:34;4.13;;;3.00;;
5491;SDS011;2768;53.540;10.224;2023-11-22T20:01:28;4.67;;;3.90;;
5491;SDS011;2768;53.540;10.224;2023-11-22T20:07:21;4.97;;;4.00;;
5491;SDS011;2768;53.540;10.224;2023-11-22T20:13:16;4.10;;;3.70;;
5491;SDS011;2768;53.540;10.224;2023-11-22T20:19:10;3.90;;;3.50;;
5491;SDS011;2768;53.540;10.224;2023-11-22T20:25:03;5.07;;;3.50;;
5491;SDS011;2768;53.540;10.224;2023-11-22T20:30:58;3.63;;;3.33;;
5491;SDS011;2768;53.540;10.224;2023-11-22T20:36:52;3.57;;;3.27;;
5491;SDS011;2768;53.540;10.224;2023-11-22T20:42:45;5.33;;;3.33;;
5491;SDS011;2768;53.540;10.224;2023-11-22T20:48:40;3.80;;;3.50;;
5491;SDS011;2768;53.540;10.224;2023-11-22T20:54:34;5.27;;;4.10;;
5491;SDS011;2768;53.540;10.224;2023-11-22T21:00:28;5.30;;;4.10;;
5491;SDS011;2768;53.540;10.224;2023-11-22T21:06:23;4.20;;;3.07;;
5491;SDS011;2768;53.540;10.224;2023-11-22T21:12:17;4.70;;;4.30;;
5491;SDS011;2768;53.540;10.224;2023-11-22T21:18:10;3.70;;;3.30;;
5491;SDS011;2768;53.540;10.224;2023-11-22T21:24:06;3.63;;;3.33;;
5491;SDS011;2768;53.540;10.224;2023-11-22T21:30:00;4.53;;;3.40;;
5491;SDS011;2768;53.540;10.224;2023-11-22T21:35:54;5.03;;;3.50;;
5491;SDS011;2768;53.540;10.224;2023-11-22T21:41:49;4.67;;;4.10;;
5491;SDS011;2768;53.540;10.224;2023-11-22T21:47:43;5.50;;;4.40;;
5491;SDS011;2768;53.540;10.224;2023-11-22T21:53:37;6.20;;;4.07;;
5491;SDS011;2768;53.540;10.224;2023-11-22T21:59:33;6.03;;;4.17;;
5491;SDS011;2768;53.540;10.224;2023-11-22T22:05:26;5.73;;;4.80;;
5491;SDS011;2768;53.540;10.224;2023-11-22T22:11:20;8.00;;;5.20;;
5491;SDS011;2768;53.540;10.224;2023-11-22T22:17:20;8.37;;;6.53;;
5491;SDS011;2768;53.540;10.224;2023-11-22T22:23:14;10.33;;;7.33;;
5491;SDS011;2768;53.540;10.224;2023-11-22T22:29:07;12.10;;;6.70;;
5491;SDS011;2768;53.540;10.224;2023-11-22T22:35:02;8.63;;;6.80;;
5491;SDS011;2768;53.540;10.224;2023-11-22T22:40:56;9.93;;;7.70;;
5491;SDS011;2768;53.540;10.224;2023-11-22T22:46:50;17.40;;;7.40;;
5491;SDS011;2768;53.540;10.224;2023-11-22T22:52:45;11.30;;;7.50;;
5491;SDS011;2768;53.540;10.224;2023-11-22T22:58:39;10.20;;;7.93;;
5491;SDS011;2768;53.540;10.224;2023-11-22T23:04:32;12.93;;;7.50;;
5491;SDS011;2768;53.540;10.224;2023-11-22T23:10:29;11.57;;;7.07;;
5491;SDS011;2768;53.540;10.224;2023-11-22T23:16:22;12.60;;;7.63;;
5491;SDS011;2768;53.540;10.224;2023-11-22T23:22:16;11.50;;;8.90;;
5491;SDS011;2768;53.540;10.224;2023-11-22T23:28:11;13.13;;;8.87;;
5491;SDS011;2768;53.540;10.224;2023-11-22T23:34:04;14.87;;;8.70;;
5491;SDS011;2768;53.540;10.224;2023-11-22T23:39:58;12.93;;;9.03;;
5491;SDS011;2768;53.540;10.224;2023-11-22T23:46:02;14.40;;;9.70;;
5491;SDS011;2768;53.540;10.224;2023-11-22T23:51:56;14.37;;;9.80;;
5491;SDS011;2768;53.540;10.224;2023-11-22T23:57:53;15.30;;;10.00;;
